SJY331 WIPP-WIII
Flight info
| Callsign | SJY331 |
|---|---|
| Flight time | 0h 47m |
| Altitude | 33000 |
| Route | UDOK1B UDOKO T5 BUNIK BUNI2M |
| Aircraft | B738/M-VGDW/C |
Departure
| Time | 2026-04-28 16:41 |
|---|---|
| Airport | Sultan Mahmud Badaruddin II Airport (WIPP) |
Arrival
| Time | 2026-04-28 17:28 |
|---|---|
| Airport | Soekarno-Hatta International Airport (WIII) |
| Time | Latitude | Longitude | Altitude | Speed | Heading |
|---|---|---|---|---|---|
| 2026-04-28 16:22 | -2.89541 | 104.70274 | 29 ft | 0 kts | 23° |
| 2026-04-28 16:33 | -2.89549 | 104.70271 | 29 ft | 4 kts | 22° |
| 2026-04-28 16:33 | -2.89574 | 104.70260 | 28 ft | 4 kts | 23° |
| 2026-04-28 16:34 | -2.89606 | 104.70244 | 30 ft | 4 kts | 37° |
| 2026-04-28 16:34 | -2.89619 | 104.70233 | 31 ft | 4 kts | 69° |
| 2026-04-28 16:34 | -2.89617 | 104.70214 | 31 ft | 4 kts | 112° |
| 2026-04-28 16:34 | -2.89614 | 104.70206 | 31 ft | 0 kts | 113° |
| 2026-04-28 16:36 | -2.89616 | 104.70210 | 31 ft | 3 kts | 113° |
| 2026-04-28 16:37 | -2.89636 | 104.70244 | 26 ft | 7 kts | 143° |
| 2026-04-28 16:37 | -2.89682 | 104.70234 | 27 ft | 8 kts | 206° |
| 2026-04-28 16:37 | -2.89740 | 104.70223 | 23 ft | 11 kts | 156° |
| 2026-04-28 16:38 | -2.89809 | 104.70362 | 27 ft | 11 kts | 112° |
| 2026-04-28 16:38 | -2.89839 | 104.70432 | 26 ft | 11 kts | 113° |
| 2026-04-28 16:38 | -2.89870 | 104.70506 | 23 ft | 13 kts | 113° |
| 2026-04-28 16:38 | -2.89913 | 104.70608 | 21 ft | 19 kts | 112° |
| 2026-04-28 16:39 | -2.89970 | 104.70744 | 19 ft | 23 kts | 112° |
| 2026-04-28 16:39 | -2.90033 | 104.70892 | 19 ft | 23 kts | 112° |
| 2026-04-28 16:39 | -2.90102 | 104.71032 | 17 ft | 22 kts | 137° |
| 2026-04-28 16:39 | -2.90225 | 104.71014 | 18 ft | 11 kts | 221° |
| 2026-04-28 16:40 | -2.90252 | 104.70980 | 19 ft | 6 kts | 264° |
| 2026-04-28 16:40 | -2.90232 | 104.70941 | 18 ft | 8 kts | 296° |
| 2026-04-28 16:40 | -2.90175 | 104.70807 | 18 ft | 50 kts | 292° |
| 2026-04-28 16:40 | -2.89944 | 104.70260 | 21 ft | 119 kts | 293° |
| 2026-04-28 16:41 | -2.89558 | 104.69334 | 162 ft | 156 kts | 292° |
| 2026-04-28 16:41 | -2.89145 | 104.68328 | 780 ft | 162 kts | 292° |
| 2026-04-28 16:41 | -2.88711 | 104.67252 | 1357 ft | 171 kts | 292° |
| 2026-04-28 16:41 | -2.88267 | 104.66122 | 1913 ft | 181 kts | 294° |
| 2026-04-28 16:42 | -2.87745 | 104.64884 | 2176 ft | 207 kts | 298° |
| 2026-04-28 16:42 | -2.86772 | 104.63741 | 2366 ft | 227 kts | 329° |
| 2026-04-28 16:42 | -2.85245 | 104.63240 | 2608 ft | 241 kts | 359° |
| 2026-04-28 16:42 | -2.83523 | 104.63565 | 2765 ft | 264 kts | 27° |
| 2026-04-28 16:43 | -2.82102 | 104.64668 | 3546 ft | 261 kts | 52° |
| 2026-04-28 16:43 | -2.81330 | 104.66304 | 4198 ft | 265 kts | 81° |
| 2026-04-28 16:43 | -2.81279 | 104.68152 | 4887 ft | 268 kts | 90° |
| 2026-04-28 16:43 | -2.81223 | 104.70028 | 5581 ft | 271 kts | 86° |
| 2026-04-28 16:44 | -2.81033 | 104.71915 | 6318 ft | 274 kts | 82° |
| 2026-04-28 16:44 | -2.80735 | 104.73803 | 7013 ft | 276 kts | 80° |
| 2026-04-28 16:44 | -2.80361 | 104.75698 | 7701 ft | 280 kts | 78° |
| 2026-04-28 16:44 | -2.79933 | 104.77609 | 8417 ft | 283 kts | 77° |
| 2026-04-28 16:45 | -2.79470 | 104.79531 | 9141 ft | 286 kts | 76° |
| 2026-04-28 16:45 | -2.78998 | 104.81481 | 9853 ft | 292 kts | 76° |
| 2026-04-28 16:45 | -2.78519 | 104.83515 | 10171 ft | 310 kts | 82° |
| 2026-04-28 16:45 | -2.78748 | 104.85721 | 10356 ft | 331 kts | 110° |
| 2026-04-28 16:46 | -2.79949 | 104.87713 | 10827 ft | 342 kts | 133° |
| 2026-04-28 16:46 | -2.81685 | 104.89310 | 11469 ft | 345 kts | 138° |
| 2026-04-28 16:46 | -2.83519 | 104.90875 | 12146 ft | 348 kts | 139° |
| 2026-04-28 16:46 | -2.85388 | 104.92446 | 12812 ft | 352 kts | 139° |
| 2026-04-28 16:47 | -2.87273 | 104.94033 | 13472 ft | 356 kts | 139° |
| 2026-04-28 16:47 | -2.89177 | 104.95646 | 14085 ft | 360 kts | 138° |
| 2026-04-28 16:47 | -2.91090 | 104.97278 | 14719 ft | 363 kts | 138° |
| 2026-04-28 16:47 | -2.93015 | 104.98928 | 15366 ft | 365 kts | 138° |
| 2026-04-28 16:48 | -2.94950 | 105.00592 | 16003 ft | 368 kts | 138° |
| 2026-04-28 16:48 | -2.96903 | 105.02275 | 16652 ft | 371 kts | 138° |
| 2026-04-28 16:48 | -2.98873 | 105.03975 | 17241 ft | 375 kts | 138° |
| 2026-04-28 16:48 | -3.00855 | 105.05686 | 17855 ft | 378 kts | 138° |
| 2026-04-28 16:49 | -3.02856 | 105.07414 | 18404 ft | 382 kts | 138° |
| 2026-04-28 16:49 | -3.04843 | 105.09131 | 18913 ft | 384 kts | 138° |
| 2026-04-28 16:49 | -3.06899 | 105.10907 | 19463 ft | 386 kts | 138° |
| 2026-04-28 16:49 | -3.08935 | 105.12665 | 19997 ft | 388 kts | 139° |
| 2026-04-28 16:50 | -3.10959 | 105.14413 | 20507 ft | 390 kts | 139° |
| 2026-04-28 16:50 | -3.13021 | 105.16196 | 21022 ft | 393 kts | 139° |
| 2026-04-28 16:50 | -3.15094 | 105.17986 | 21540 ft | 395 kts | 139° |
| 2026-04-28 16:50 | -3.17176 | 105.19785 | 22052 ft | 397 kts | 139° |
| 2026-04-28 16:51 | -3.19269 | 105.21594 | 22555 ft | 399 kts | 139° |
| 2026-04-28 16:51 | -3.21374 | 105.23413 | 23053 ft | 401 kts | 139° |
| 2026-04-28 16:51 | -3.23493 | 105.25244 | 23517 ft | 403 kts | 139° |
| 2026-04-28 16:51 | -3.25627 | 105.27089 | 23912 ft | 405 kts | 139° |
| 2026-04-28 16:52 | -3.27764 | 105.28936 | 24279 ft | 408 kts | 139° |
| 2026-04-28 16:52 | -3.29921 | 105.30800 | 24639 ft | 411 kts | 139° |
| 2026-04-28 16:52 | -3.32097 | 105.32681 | 25002 ft | 414 kts | 139° |
| 2026-04-28 16:52 | -3.34282 | 105.34571 | 25359 ft | 416 kts | 139° |
| 2026-04-28 16:53 | -3.36453 | 105.36448 | 25707 ft | 419 kts | 139° |
| 2026-04-28 16:53 | -3.38660 | 105.38356 | 26064 ft | 421 kts | 138° |
| 2026-04-28 16:53 | -3.40883 | 105.40278 | 26409 ft | 424 kts | 138° |
| 2026-04-28 16:53 | -3.43125 | 105.42217 | 26732 ft | 427 kts | 138° |
| 2026-04-28 16:54 | -3.45377 | 105.44165 | 27063 ft | 429 kts | 138° |
| 2026-04-28 16:54 | -3.47637 | 105.46119 | 27500 ft | 429 kts | 138° |
| 2026-04-28 16:54 | -3.49890 | 105.48068 | 27999 ft | 427 kts | 138° |
| 2026-04-28 16:54 | -3.51409 | 105.49382 | 28337 ft | 426 kts | 138° |
| 2026-04-28 16:55 | -3.54382 | 105.51954 | 28867 ft | 428 kts | 138° |
| 2026-04-28 16:55 | -3.58895 | 105.55850 | 28885 ft | 426 kts | 138° |
| 2026-04-28 16:56 | -3.63453 | 105.59669 | 28896 ft | 427 kts | 139° |
| 2026-04-28 16:56 | -3.68033 | 105.63468 | 28893 ft | 428 kts | 139° |
| 2026-04-28 16:57 | -3.72616 | 105.67281 | 28887 ft | 428 kts | 139° |
| 2026-04-28 16:57 | -3.77198 | 105.71103 | 28888 ft | 428 kts | 139° |
| 2026-04-28 16:58 | -3.81776 | 105.74925 | 28887 ft | 428 kts | 139° |
| 2026-04-28 16:58 | -3.86326 | 105.78726 | 28887 ft | 428 kts | 139° |
| 2026-04-28 16:59 | -3.90903 | 105.82550 | 28888 ft | 427 kts | 139° |
| 2026-04-28 16:59 | -3.95470 | 105.86365 | 28887 ft | 427 kts | 139° |
| 2026-04-28 17:00 | -4.00027 | 105.90173 | 28887 ft | 427 kts | 139° |
| 2026-04-28 17:00 | -4.04563 | 105.93964 | 28889 ft | 427 kts | 139° |
| 2026-04-28 17:01 | -4.09123 | 105.97775 | 28888 ft | 427 kts | 139° |
| 2026-04-28 17:01 | -4.13682 | 106.01587 | 28883 ft | 427 kts | 139° |
| 2026-04-28 17:02 | -4.18246 | 106.05402 | 28886 ft | 427 kts | 139° |
| 2026-04-28 17:02 | -4.22814 | 106.09223 | 28885 ft | 427 kts | 139° |
| 2026-04-28 17:03 | -4.29665 | 106.14953 | 28885 ft | 428 kts | 139° |
| 2026-04-28 17:03 | -4.34205 | 106.18751 | 28885 ft | 428 kts | 139° |
| 2026-04-28 17:04 | -4.41061 | 106.24488 | 28883 ft | 428 kts | 139° |
| 2026-04-28 17:05 | -4.47913 | 106.30223 | 28884 ft | 427 kts | 139° |
| 2026-04-28 17:06 | -4.54741 | 106.35939 | 28881 ft | 423 kts | 139° |
| 2026-04-28 17:06 | -4.56993 | 106.37824 | 28573 ft | 419 kts | 139° |
| 2026-04-28 17:06 | -4.61396 | 106.41511 | 27780 ft | 408 kts | 139° |
| 2026-04-28 17:07 | -4.63566 | 106.43329 | 27332 ft | 405 kts | 139° |
| 2026-04-28 17:07 | -4.65719 | 106.45133 | 26893 ft | 401 kts | 139° |
| 2026-04-28 17:07 | -4.67851 | 106.46919 | 26461 ft | 398 kts | 140° |
| 2026-04-28 17:07 | -4.69969 | 106.48693 | 26017 ft | 396 kts | 140° |
| 2026-04-28 17:08 | -4.72046 | 106.50434 | 25592 ft | 393 kts | 140° |
| 2026-04-28 17:08 | -4.74143 | 106.52191 | 25139 ft | 391 kts | 140° |
| 2026-04-28 17:08 | -4.76223 | 106.53935 | 24701 ft | 389 kts | 140° |
| 2026-04-28 17:08 | -4.78297 | 106.55673 | 24274 ft | 387 kts | 140° |
| 2026-04-28 17:09 | -4.80356 | 106.57399 | 23836 ft | 385 kts | 140° |
| 2026-04-28 17:09 | -4.82405 | 106.59117 | 23396 ft | 383 kts | 140° |
| 2026-04-28 17:09 | -4.84450 | 106.60830 | 22896 ft | 381 kts | 140° |
| 2026-04-28 17:09 | -4.86514 | 106.62473 | 22448 ft | 377 kts | 147° |
| 2026-04-28 17:10 | -4.88834 | 106.63675 | 22081 ft | 372 kts | 155° |
| 2026-04-28 17:10 | -4.91201 | 106.64729 | 21646 ft | 370 kts | 156° |
| 2026-04-28 17:10 | -4.93556 | 106.65756 | 21229 ft | 367 kts | 155° |
| 2026-04-28 17:10 | -4.95889 | 106.66783 | 20810 ft | 365 kts | 155° |
| 2026-04-28 17:11 | -4.98199 | 106.67816 | 20401 ft | 363 kts | 155° |
| 2026-04-28 17:11 | -5.00496 | 106.68856 | 19999 ft | 361 kts | 155° |
| 2026-04-28 17:11 | -5.02777 | 106.69897 | 19580 ft | 360 kts | 154° |
| 2026-04-28 17:11 | -5.05051 | 106.70938 | 19160 ft | 359 kts | 154° |
| 2026-04-28 17:12 | -5.07325 | 106.71981 | 18743 ft | 359 kts | 154° |
| 2026-04-28 17:12 | -5.09593 | 106.73022 | 18340 ft | 358 kts | 154° |
| 2026-04-28 17:12 | -5.11825 | 106.74047 | 17897 ft | 357 kts | 154° |
| 2026-04-28 17:12 | -5.14111 | 106.75095 | 17470 ft | 355 kts | 154° |
| 2026-04-28 17:13 | -5.16321 | 106.76109 | 17070 ft | 353 kts | 154° |
| 2026-04-28 17:13 | -5.18555 | 106.77131 | 16654 ft | 351 kts | 154° |
| 2026-04-28 17:13 | -5.20778 | 106.78140 | 16237 ft | 350 kts | 154° |
| 2026-04-28 17:13 | -5.22996 | 106.79142 | 15824 ft | 348 kts | 154° |
| 2026-04-28 17:14 | -5.25202 | 106.80139 | 15409 ft | 347 kts | 154° |
| 2026-04-28 17:14 | -5.27398 | 106.81132 | 15005 ft | 346 kts | 154° |
| 2026-04-28 17:14 | -5.29592 | 106.82125 | 14575 ft | 345 kts | 154° |
| 2026-04-28 17:14 | -5.31781 | 106.83117 | 14163 ft | 344 kts | 154° |
| 2026-04-28 17:15 | -5.33965 | 106.84106 | 13749 ft | 344 kts | 154° |
| 2026-04-28 17:15 | -5.36145 | 106.85094 | 13291 ft | 343 kts | 154° |
| 2026-04-28 17:15 | -5.38286 | 106.86064 | 12873 ft | 341 kts | 154° |
| 2026-04-28 17:15 | -5.40443 | 106.87042 | 12459 ft | 339 kts | 154° |
| 2026-04-28 17:16 | -5.42584 | 106.88013 | 12053 ft | 337 kts | 154° |
| 2026-04-28 17:16 | -5.44691 | 106.88966 | 11902 ft | 326 kts | 154° |
| 2026-04-28 17:16 | -5.46725 | 106.89865 | 11873 ft | 312 kts | 159° |
| 2026-04-28 17:16 | -5.48815 | 106.90203 | 11881 ft | 300 kts | 179° |
| 2026-04-28 17:17 | -5.50854 | 106.90171 | 11865 ft | 287 kts | 179° |
| 2026-04-28 17:17 | -5.52811 | 106.90125 | 11862 ft | 275 kts | 180° |
| 2026-04-28 17:17 | -5.54681 | 106.90082 | 11853 ft | 262 kts | 179° |
| 2026-04-28 17:17 | -5.56465 | 106.90045 | 11851 ft | 252 kts | 180° |
| 2026-04-28 17:18 | -5.58202 | 106.90013 | 11863 ft | 248 kts | 179° |
| 2026-04-28 17:18 | -5.59930 | 106.89985 | 11864 ft | 249 kts | 179° |
| 2026-04-28 17:18 | -5.61668 | 106.89958 | 11887 ft | 251 kts | 179° |
| 2026-04-28 17:18 | -5.63419 | 106.89931 | 11883 ft | 252 kts | 179° |
| 2026-04-28 17:19 | -5.65173 | 106.89904 | 11829 ft | 250 kts | 179° |
| 2026-04-28 17:19 | -5.66903 | 106.89878 | 11634 ft | 247 kts | 179° |
| 2026-04-28 17:19 | -5.68046 | 106.89861 | 11273 ft | 251 kts | 179° |
| 2026-04-28 17:19 | -5.70523 | 106.89827 | 10075 ft | 280 kts | 179° |
| 2026-04-28 17:20 | -5.72467 | 106.89797 | 9501 ft | 284 kts | 179° |
| 2026-04-28 17:20 | -5.73802 | 106.89770 | 9179 ft | 283 kts | 179° |
| 2026-04-28 17:20 | -5.76388 | 106.89713 | 8600 ft | 279 kts | 179° |
| 2026-04-28 17:20 | -5.77698 | 106.89684 | 8285 ft | 278 kts | 179° |
| 2026-04-28 17:21 | -5.79623 | 106.89643 | 7821 ft | 276 kts | 179° |
| 2026-04-28 17:21 | -5.81515 | 106.89602 | 7391 ft | 274 kts | 179° |
| 2026-04-28 17:21 | -5.83415 | 106.89562 | 6964 ft | 272 kts | 179° |
| 2026-04-28 17:22 | -5.87152 | 106.89482 | 6336 ft | 260 kts | 179° |
| 2026-04-28 17:22 | -5.88939 | 106.89444 | 6063 ft | 253 kts | 179° |
| 2026-04-28 17:22 | -5.90664 | 106.89407 | 5864 ft | 243 kts | 179° |
| 2026-04-28 17:23 | -5.93935 | 106.89338 | 5435 ft | 228 kts | 179° |
| 2026-04-28 17:23 | -5.95509 | 106.89282 | 5135 ft | 226 kts | 186° |
| 2026-04-28 17:23 | -5.96933 | 106.88626 | 4766 ft | 230 kts | 219° |
| 2026-04-28 17:23 | -5.98123 | 106.87559 | 4434 ft | 229 kts | 219° |
| 2026-04-28 17:24 | -5.99321 | 106.86509 | 4101 ft | 228 kts | 219° |
| 2026-04-28 17:24 | -6.00513 | 106.85472 | 3783 ft | 226 kts | 219° |
| 2026-04-28 17:24 | -6.01705 | 106.84439 | 3441 ft | 226 kts | 219° |
| 2026-04-28 17:24 | -6.02894 | 106.83408 | 3129 ft | 226 kts | 219° |
| 2026-04-28 17:25 | -6.04065 | 106.82377 | 3032 ft | 225 kts | 224° |
| 2026-04-28 17:25 | -6.05387 | 106.79472 | 2526 ft | 236 kts | 247° |
| 2026-04-28 17:25 | -6.06030 | 106.77942 | 2230 ft | 239 kts | 246° |
| 2026-04-28 17:26 | -6.06653 | 106.76402 | 1933 ft | 237 kts | 248° |
| 2026-04-28 17:26 | -6.07254 | 106.74879 | 1631 ft | 230 kts | 248° |
| 2026-04-28 17:26 | -6.07827 | 106.73431 | 1328 ft | 215 kts | 248° |
| 2026-04-28 17:26 | -6.08361 | 106.72082 | 1067 ft | 201 kts | 247° |
| 2026-04-28 17:27 | -6.08862 | 106.70816 | 833 ft | 188 kts | 247° |
| 2026-04-28 17:27 | -6.09335 | 106.69624 | 617 ft | 175 kts | 247° |
| 2026-04-28 17:27 | -6.09764 | 106.68540 | 377 ft | 159 kts | 246° |
| 2026-04-28 17:27 | -6.10143 | 106.67557 | 211 ft | 149 kts | 246° |
| 2026-04-28 17:28 | -6.10530 | 106.66588 | 47 ft | 149 kts | 246° |
| 2026-04-28 17:28 | -6.11157 | 106.65011 | 32 ft | 87 kts | 248° |
| 2026-04-28 17:28 | -6.11312 | 106.64631 | 35 ft | 33 kts | 243° |
| 2026-04-28 17:29 | -6.11457 | 106.64470 | 35 ft | 30 kts | 217° |
| 2026-04-28 17:29 | -6.11579 | 106.64420 | 37 ft | 15 kts | 163° |
| 2026-04-28 17:29 | -6.11672 | 106.64454 | 35 ft | 14 kts | 159° |
| 2026-04-28 17:30 | -6.11844 | 106.64492 | 38 ft | 13 kts | 216° |
| 2026-04-28 17:30 | -6.11959 | 106.64365 | 36 ft | 12 kts | 208° |
| 2026-04-28 17:30 | -6.12040 | 106.64373 | 37 ft | 12 kts | 159° |
| 2026-04-28 17:31 | -6.12116 | 106.64403 | 37 ft | 12 kts | 158° |
| 2026-04-28 17:31 | -6.12261 | 106.64461 | 37 ft | 11 kts | 158° |
| 2026-04-28 17:32 | -6.12399 | 106.64515 | 36 ft | 11 kts | 158° |
| 2026-04-28 17:32 | -6.12484 | 106.64549 | 37 ft | 16 kts | 158° |
| 2026-04-28 17:32 | -6.12607 | 106.64598 | 35 ft | 20 kts | 158° |
| 2026-04-28 17:32 | -6.12737 | 106.64650 | 37 ft | 20 kts | 158° |
| 2026-04-28 17:33 | -6.12862 | 106.64700 | 37 ft | 19 kts | 158° |
| 2026-04-28 17:33 | -6.12984 | 106.64749 | 37 ft | 18 kts | 159° |
| 2026-04-28 17:33 | -6.13098 | 106.64794 | 37 ft | 14 kts | 158° |
| 2026-04-28 17:33 | -6.13135 | 106.64839 | 37 ft | 13 kts | 95° |
| 2026-04-28 17:34 | -6.13096 | 106.64954 | 37 ft | 13 kts | 68° |
| 2026-04-28 17:34 | -6.13116 | 106.65030 | 37 ft | 12 kts | 148° |
| 2026-04-28 17:34 | -6.13182 | 106.65058 | 37 ft | 6 kts | 157° |
| 2026-04-28 17:34 | -6.13183 | 106.65092 | 37 ft | 5 kts | 72° |
| 2026-04-28 17:35 | -6.13177 | 106.65109 | 36 ft | 1 kts | 71° |
| 2026-04-28 17:35 | -6.13173 | 106.65122 | 37 ft | 1 kts | 72° |
| 2026-04-28 17:35 | -6.13172 | 106.65126 | 37 ft | 0 kts | 72° |